Aviation Digital Data Service (ADDS)

Output produced by METARs form (1109 UTC 13 December 2017)
found at http://www.aviationweather.gov/adds/metars/
 
SUCA 130500Z 1306/1406 01010KT CAVOK TX34/1318Z TN14/1309Z 
     BECMG 1317/1319 10010KT
       
SUDU 131100Z 05007KT CAVOK 20/15 Q1013
SUDU 130500Z 1306/1406 07008KT CAVOK TX37/1318Z TN13/1309Z 
     BECMG 1317/1319 35010KT
       
SUMU 13110Z 33010KT CAVOK 21/15 Q1012 NOSIG
TAF SUMU 130500Z 1306/1406 01010KT CAVOK TX34/1318Z TN14/1309Z 
     BECMG 1317/1319 10010KT
       
SUAA 131100Z 01016KT CAVOK 20/15 Q1012
TAF SUAA 130500Z 1306/1406 01010KT CAVOK TX34/1318Z TN14/1309Z 
     BECMG 1317/1319 10010KT
       
SULS 131100Z 03007KT 350V080 CAVOK 22/15 Q1013
TAF SULS 130500Z 1306/1406 01010KT CAVOK TX34/1318Z TN14/1309Z 
     BECMG 1317/1319 10010KT
       
SURV 130500Z 1306/1406 07008KT CAVOK TX37/1318Z TN13/1309Z 
     BECMG 1317/1319 35010KT
       
SUSO 131100Z 00000KT CAVOK 21/14 Q1011
SUSO 130500Z 1306/1406 07008KT CAVOK TX37/1318Z TN13/1309Z 
     BECMG 1317/1319 35010KT